Terminal Aerodrome Forecast
Issued by NWS Buffalo, NY

Home | Current Version | Previous Version | Text Only | Print | Product List | Glossary On
Versions: 1 2 3 4 5 6 7 8 9 10 11 12 13 14 15 16 17 18 19 20 21 22 23 24 25 26 27
218
FTUS41 KBUF 231134
TAFART
TAF
KART 231134Z 2312/2412 06011KT P6SM SCT006 OVC030
     FM231300 07009KT P6SM OVC035
     FM231900 08010KT P6SM SCT035 OVC200
     FM232300 07009KT 6SM -RA OVC090
     FM240100 06009KT 2SM -SNPL OVC050
     FM240600 04010G17KT 2SM -SNPL OVC025
     FM240800 04011G19KT 1/2SM SN OVC020=

USA.gov is the U.S. government's official web portal to all federal, state and local government web resources and services.